Time;durP1;ratioP1;P1;durP2;ratioP2;P2;SDS_P1;SDS_P2;PMS_P1;PMS_P2;Temp;Humidity;BMP_temperature;BMP_pressure;BME280_temperature;BME280_humidity;BME280_pressure;Samples;Min_cycle;Max_cycle;Signal;HPM_P1;HPM_P2
2023/04/01 00:01:43;;;;;;;13.00;8.80;;;;;;;7.12;83.26;97429.73;105288;1266;61824;-24
2023/04/01 00:04:11;;;;;;;12.80;8.80;;;;;;;7.00;82.50;97427.56;105258;1260;74426;-24
2023/04/01 00:06:40;;;;;;;11.60;8.00;;;;;;;6.68;82.86;97420.88;105271;1260;75574;-23
2023/04/01 00:17:10;;;;;;;13.20;7.90;;;;;;;6.72;83.92;97418.55;102506;1294;617115;-24
2023/04/01 00:19:38;;;;;;;10.90;7.70;;;;;;;6.48;84.64;97424.06;104892;1268;61919;-24
2023/04/01 00:22:06;;;;;;;11.10;6.40;;;;;;;6.22;85.93;97426.89;105087;1267;61827;-24
2023/04/01 00:24:33;;;;;;;14.80;7.70;;;;;;;6.51;85.88;97424.23;104876;1266;73885;-25
2023/04/01 00:27:01;;;;;;;11.00;6.50;;;;;;;6.88;84.30;97424.52;104829;1272;74730;-24
2023/04/01 00:29:30;;;;;;;11.70;7.40;;;;;;;6.83;83.67;97422.94;103351;1267;2298297;-25
2023/04/01 00:31:57;;;;;;;11.50;7.30;;;;;;;6.60;84.07;97420.02;105075;1263;61757;-24
2023/04/01 00:34:26;;;;;;;13.50;8.90;;;;;;;6.37;84.67;97416.42;105103;1269;61113;-24
2023/04/01 00:36:53;;;;;;;12.60;7.40;;;;;;;6.18;86.07;97415.36;105135;1264;73523;-24
2023/04/01 00:39:21;;;;;;;14.60;8.70;;;;;;;6.62;85.52;97413.23;105127;1264;75733;-25
2023/04/01 00:41:49;;;;;;;13.10;7.90;;;;;;;6.85;84.33;97416.73;105137;1264;74120;-24
2023/04/01 00:44:26;;;;;;;16.20;8.80;;;;;;;6.80;83.92;97409.91;105174;1264;61007;-24
2023/04/01 00:46:56;;;;;;;12.30;9.00;;;;;;;6.56;84.10;97406.27;104815;1270;61903;-24
2023/04/01 00:49:26;;;;;;;9.80;6.10;;;;;;;6.25;85.10;97405.05;104913;1264;74165;-24
2023/04/01 00:51:55;;;;;;;12.50;7.70;;;;;;;6.32;86.20;97406.34;104800;1263;74791;-25
2023/04/01 00:54:23;;;;;;;11.50;7.70;;;;;;;6.71;84.61;97403.47;104979;1279;74256;-24
2023/04/01 00:56:56;;;;;;;13.20;8.70;;;;;;;6.68;84.08;97404.33;104817;1264;61677;-24
2023/04/01 00:59:31;;;;;;;13.20;8.10;;;;;;;6.48;84.38;97401.42;104938;1266;61947;-24
2023/04/01 01:01:58;;;;;;;12.60;8.20;;;;;;;6.18;85.80;97395.54;104918;1263;74708;-24
2023/04/01 01:04:26;;;;;;;12.00;7.80;;;;;;;6.17;86.63;97395.96;105096;1264;75662;-24
2023/04/01 01:07:25;;;;;;;11.70;7.50;;;;;;;6.60;85.59;97393.14;104963;1269;74233;-24
2023/04/01 01:10:02;;;;;;;9.40;7.60;;;;;;;6.72;84.02;97392.90;105007;1264;61666;-24
2023/04/01 01:12:58;;;;;;;14.40;7.50;;;;;;;6.51;83.88;97386.38;105179;1262;61858;-25
2023/04/01 01:15:46;;;;;;;7.80;4.90;;;;;;;6.14;85.30;97386.91;105086;1269;74248;-24
2023/04/01 01:18:32;;;;;;;9.20;7.60;;;;;;;6.24;86.30;97386.41;105023;1264;74739;-24
2023/04/01 01:21:20;;;;;;;13.10;6.70;;;;;;;6.57;84.67;97382.40;105125;1263;74086;-26
2023/04/01 01:24:06;;;;;;;11.70;8.00;;;;;;;6.44;83.71;97376.42;105150;1264;61687;-24
2023/04/01 01:26:44;;;;;;;12.50;8.40;;;;;;;6.15;84.27;97376.65;105152;1267;61779;-24
2023/04/01 01:29:36;;;;;;;9.30;6.20;;;;;;;5.89;85.61;97378.03;105138;1264;74281;-24
2023/04/01 01:32:25;;;;;;;13.50;7.60;;;;;;;6.29;85.48;97380.05;105128;1267;75816;-24
2023/04/01 01:35:30;;;;;;;14.60;6.80;;;;;;;6.50;84.44;97380.25;104824;1270;74156;-24
2023/04/01 01:38:01;;;;;;;12.60;8.70;;;;;;;6.25;85.46;97375.02;104967;1267;62303;-24
2023/04/01 01:40:29;;;;;;;11.50;8.60;;;;;;;6.03;86.22;97372.38;104782;1266;61221;-24
2023/04/01 01:43:00;;;;;;;11.20;7.30;;;;;;;5.90;86.29;97368.15;104825;1267;74401;-24
2023/04/01 01:45:27;;;;;;;11.40;7.70;;;;;;;6.30;85.46;97361.82;105415;1262;74908;-24
2023/04/01 01:47:55;;;;;;;9.30;6.40;;;;;;;6.43;84.07;97354.11;105403;1258;74212;-24
2023/04/01 01:50:23;;;;;;;15.10;9.70;;;;;;;6.28;84.18;97352.73;105359;1258;61600;-24
2023/04/01 01:52:50;;;;;;;15.60;8.90;;;;;;;6.00;84.86;97356.77;105314;1263;61159;-24
2023/04/01 01:55:27;;;;;;;11.60;7.30;;;;;;;5.71;86.52;97354.80;105505;1257;74621;-24
2023/04/01 01:57:57;;;;;;;15.10;9.20;;;;;;;6.02;87.16;97359.48;105558;1262;75851;-24
2023/04/01 02:00:26;;;;;;;12.00;6.80;;;;;;;6.35;85.66;97360.86;105460;1257;74207;-25
2023/04/01 02:02:54;;;;;;;11.10;7.80;;;;;;;6.32;84.96;97353.43;105196;1257;61809;-24
2023/04/01 02:05:23;;;;;;;16.70;10.70;;;;;;;6.11;85.25;97353.60;105458;1257;61747;-24
2023/04/01 02:08:15;;;;;;;9.30;5.80;;;;;;;5.82;86.51;97351.39;105311;1257;73326;-24
2023/04/01 02:10:46;;;;;;;10.00;6.50;;;;;;;6.08;86.86;97348.11;105593;1257;75890;-24
2023/04/01 02:13:22;;;;;;;15.50;9.60;;;;;;;6.21;85.86;97343.52;105276;1257;74069;-24
2023/04/01 02:15:49;;;;;;;12.00;7.30;;;;;;;6.06;86.00;97345.02;105274;1264;61895;-24
2023/04/01 02:18:17;;;;;;;11.00;7.00;;;;;;;5.84;87.00;97338.02;105253;1259;61602;-24
2023/04/01 02:20:49;;;;;;;14.90;9.80;;;;;;;6.00;87.47;97340.24;105289;1257;74389;-24
2023/04/01 02:23:17;;;;;;;10.30;8.30;;;;;;;6.31;86.10;97340.57;105271;1257;75865;-24
2023/04/01 02:25:44;;;;;;;11.40;7.60;;;;;;;6.30;85.41;97341.14;105528;1260;74275;-23
2023/04/01 02:28:14;;;;;;;12.30;9.00;;;;;;;6.11;85.63;97337.89;105494;1257;61758;-23
2023/04/01 02:30:42;;;;;;;9.20;6.50;;;;;;;5.89;86.31;97331.00;105476;1262;61996;-23
2023/04/01 02:33:14;;;;;;;13.10;8.10;;;;;;;6.02;86.44;97332.29;105295;1257;74408;-23
2023/04/01 02:35:42;;;;;;;10.40;6.20;;;;;;;6.35;85.30;97333.31;105617;1257;75748;-23
2023/04/01 02:38:10;;;;;;;13.10;8.60;;;;;;;6.28;84.88;97330.30;105490;1260;72925;-25
2023/04/01 02:40:49;;;;;;;11.90;7.80;;;;;;;6.06;85.19;97335.91;105514;1257;61868;-25
2023/04/01 02:43:19;;;;;;;11.50;6.90;;;;;;;5.77;85.93;97337.27;105101;1263;61753;-25
2023/04/01 02:45:51;;;;;;;7.60;5.80;;;;;;;5.92;86.57;97337.32;105328;1257;74582;-25
2023/04/01 02:48:19;;;;;;;11.80;7.70;;;;;;;6.24;85.26;97338.59;105608;1257;75792;-25
2023/04/01 02:50:46;;;;;;;10.70;7.40;;;;;;;6.24;84.70;97336.59;105460;1260;74226;-25
2023/04/01 02:53:15;;;;;;;10.50;7.50;;;;;;;5.99;85.46;97342.38;105497;1257;61643;-25
2023/04/01 02:55:44;;;;;;;10.30;6.80;;;;;;;5.65;86.76;97338.80;105316;1257;61156;-25
2023/04/01 02:58:18;;;;;;;9.10;5.30;;;;;;;5.85;87.06;97337.75;105476;1260;74121;-25
2023/04/01 03:00:46;;;;;;;8.90;6.50;;;;;;;6.06;86.00;97339.36;105306;1257;75651;-27
2023/04/01 03:03:14;;;;;;;11.20;7.70;;;;;;;5.98;85.47;97337.80;105473;1257;74115;-24
2023/04/01 03:05:43;;;;;;;10.50;8.40;;;;;;;5.77;85.65;97330.40;105610;1258;61632;-24
2023/04/01 03:08:11;;;;;;;10.10;5.80;;;;;;;5.59;86.09;97333.55;105528;1261;61842;-25
2023/04/01 03:40:04;;;;;;;10.40;6.00;;;;;;;4.22;91.97;97326.13;103514;1286;615183;-26
2023/04/01 03:42:34;;;;;;;8.30;6.20;;;;;;;5.07;91.63;97327.80;104801;1264;61238;-23
2023/04/01 03:45:04;;;;;;;9.60;5.80;;;;;;;5.69;89.23;97325.41;104893;1269;61791;-23
2023/04/01 03:47:31;;;;;;;11.70;7.40;;;;;;;5.78;87.70;97327.48;104935;1264;73809;-23
2023/04/01 03:49:59;;;;;;;9.70;7.20;;;;;;;5.64;87.46;97324.77;104914;1264;75724;-23
2023/04/01 03:52:27;;;;;;;9.00;6.70;;;;;;;5.44;87.55;97321.01;103457;1264;2078041;-24
2023/04/01 03:54:54;;;;;;;8.80;6.30;;;;;;;5.52;87.97;97323.44;105115;1269;62738;-23
2023/04/01 03:57:24;;;;;;;9.70;7.00;;;;;;;6.06;86.80;97327.10;105211;1264;62010;-23
2023/04/01 03:59:53;;;;;;;10.00;6.80;;;;;;;6.23;85.45;97334.04;104932;1269;74226;-23
2023/04/01 04:02:20;;;;;;;11.60;7.20;;;;;;;6.10;85.17;97336.75;105259;1268;75622;-23
2023/04/01 04:04:48;;;;;;;9.40;5.90;;;;;;;5.88;85.69;97337.09;105146;1264;74207;-23
2023/04/01 04:07:15;;;;;;;8.60;5.80;;;;;;;5.74;86.34;97334.77;105188;1264;63392;-23
2023/04/01 04:09:59;;;;;;;8.00;6.20;;;;;;;6.20;85.73;97338.80;105084;1267;61720;-23
2023/04/01 04:12:26;;;;;;;9.30;6.50;;;;;;;6.37;84.67;97337.06;105070;1264;74638;-24
2023/04/01 04:14:54;;;;;;;10.20;5.40;;;;;;;6.23;84.34;97342.19;105212;1266;75745;-24
2023/04/01 04:17:22;;;;;;;11.90;7.70;;;;;;;5.99;85.15;97343.59;105205;1269;74087;-24
2023/04/01 04:19:51;;;;;;;8.70;6.00;;;;;;;5.80;86.06;97340.23;105664;1260;63230;-23
2023/04/01 04:22:19;;;;;;;7.00;5.10;;;;;;;6.14;85.86;97344.16;105716;1260;61710;-23
2023/04/01 04:24:46;;;;;;;7.90;5.80;;;;;;;6.46;84.38;97338.35;105753;1259;74538;-24
2023/04/01 04:27:14;;;;;;;6.40;5.40;;;;;;;6.44;84.04;97334.63;105649;1260;75842;-23
2023/04/01 04:29:48;;;;;;;9.10;5.60;;;;;;;6.22;84.13;97334.13;105699;1255;74281;-23
2023/04/01 04:32:16;;;;;;;7.60;5.80;;;;;;;5.98;84.90;97340.06;105684;1254;61325;-23
2023/04/01 04:34:44;;;;;;;7.50;5.90;;;;;;;6.10;85.44;97339.33;105648;1260;61742;-25
2023/04/01 04:37:11;;;;;;;8.80;6.20;;;;;;;6.51;84.21;97342.23;105624;1259;74483;-24
2023/04/01 04:39:39;;;;;;;9.10;6.10;;;;;;;6.57;83.44;97338.39;105596;1257;74791;-23
2023/04/01 04:42:07;;;;;;;10.70;6.70;;;;;;;6.38;83.57;97343.93;105571;1258;74216;-24
2023/04/01 04:44:35;;;;;;;8.90;6.10;;;;;;;6.13;84.34;97344.44;105624;1258;61813;-24
2023/04/01 04:47:03;;;;;;;8.50;5.60;;;;;;;5.96;85.17;97346.73;105633;1262;61864;-24
2023/04/01 04:49:32;;;;;;;8.10;5.60;;;;;;;6.34;84.99;97350.48;105174;1263;74380;-26
2023/04/01 04:52:02;;;;;;;11.40;6.60;;;;;;;6.64;83.77;97349.66;105344;1257;76306;-24
2023/04/01 04:54:29;;;;;;;7.80;5.50;;;;;;;6.60;83.16;97347.03;105537;1257;74094;-23
2023/04/01 04:57:00;;;;;;;10.50;6.90;;;;;;;6.44;83.50;97349.73;105386;1263;61183;-24
2023/04/01 04:59:31;;;;;;;6.60;5.00;;;;;;;6.22;84.37;97347.45;105294;1264;61839;-23
2023/04/01 05:02:06;;;;;;;7.70;5.40;;;;;;;6.46;84.64;97348.72;105560;1263;74365;-23
2023/04/01 05:04:35;;;;;;;8.60;5.60;;;;;;;6.90;83.19;97344.66;105615;1263;75645;-23
2023/04/01 05:07:03;;;;;;;9.90;6.60;;;;;;;6.94;82.47;97337.07;105416;1262;74071;-24
2023/04/01 05:09:31;;;;;;;4.00;3.50;;;;;;;6.78;82.42;97337.52;105384;1263;61653;-24
2023/04/01 05:12:02;;;;;;;9.90;5.90;;;;;;;6.56;82.95;97336.41;105551;1262;61633;-23
2023/04/01 05:14:39;;;;;;;8.20;5.00;;;;;;;6.39;83.63;97336.41;105327;1262;74456;-23
2023/04/01 05:17:11;;;;;;;;;;;;;;;6.93;83.27;97334.01;105543;1267;75932;-23
2023/04/01 05:19:39;;;;;;;8.20;5.70;;;;;;;7.17;81.12;97330.91;105297;1261;74530;-24
2023/04/01 05:22:07;;;;;;;11.00;5.30;;;;;;;7.11;81.23;97329.55;105440;1262;61800;-24
2023/04/01 05:24:53;;;;;;;8.70;6.00;;;;;;;6.89;81.31;97322.61;105583;1260;61089;-23
2023/04/01 05:35:04;;;;;;;9.00;6.30;;;;;;;7.41;81.44;97316.09;102633;1299;599908;-23
2023/04/01 05:37:35;;;;;;;10.80;6.30;;;;;;;7.36;80.84;97318.09;104838;1266;61100;-23
2023/04/01 05:40:07;;;;;;;9.80;6.10;;;;;;;7.14;81.28;97316.16;104756;1274;61910;-22
2023/04/01 05:42:36;;;;;;;9.60;6.90;;;;;;;6.93;82.04;97322.83;104828;1266;73745;-23
2023/04/01 05:45:07;;;;;;;11.90;5.70;;;;;;;6.76;82.82;97332.82;104813;1272;75643;-24
2023/04/01 05:48:02;;;;;;;9.00;6.10;;;;;;;7.06;83.13;97335.80;103232;1266;2033024;-25
2023/04/01 05:50:36;;;;;;;8.20;5.00;;;;;;;7.47;81.59;97328.94;105151;1264;61074;-25
2023/04/01 05:53:05;;;;;;;8.00;6.00;;;;;;;7.51;80.84;97332.08;105213;1269;61848;-25
2023/04/01 05:55:36;;;;;;;9.30;6.30;;;;;;;7.29;81.03;97331.88;104974;1269;72519;-25
2023/04/01 05:58:04;;;;;;;12.10;7.30;;;;;;;7.04;82.00;97332.66;104903;1269;75010;-25
2023/04/01 06:00:34;;;;;;;9.60;5.80;;;;;;;6.97;82.58;97336.26;104931;1269;74672;-22
2023/04/01 06:03:22;;;;;;;7.60;5.80;;;;;;;7.33;81.55;97339.30;104922;1269;62210;-24
2023/04/01 06:05:51;;;;;;;7.50;5.60;;;;;;;7.41;80.78;97344.77;105207;1269;61870;-25
2023/04/01 06:08:25;;;;;;;8.50;6.30;;;;;;;7.18;81.26;97347.98;104904;1267;74656;-25
2023/04/01 06:10:59;;;;;;;11.00;6.00;;;;;;;7.00;81.99;97348.40;104966;1269;74965;-25
2023/04/01 06:14:07;;;;;;;11.00;6.20;;;;;;;6.79;82.57;97356.67;104896;1270;74015;-25
2023/04/01 06:17:02;;;;;;;7.80;5.80;;;;;;;7.18;82.82;97351.37;105166;1264;61656;-22
2023/04/01 06:19:56;;;;;;;8.90;6.00;;;;;;;7.41;81.69;97355.10;104902;1269;61661;-25
2023/04/01 06:22:47;;;;;;;11.20;6.70;;;;;;;7.25;81.76;97357.15;104885;1266;74679;-25
2023/04/01 06:25:35;;;;;;;7.00;5.80;;;;;;;6.92;82.76;97354.02;104900;1269;75802;-24
2023/04/01 06:28:26;;;;;;;9.20;6.20;;;;;;;7.19;83.07;97351.77;104938;1269;73987;-23
2023/04/01 06:31:25;;;;;;;8.80;6.60;;;;;;;7.52;81.90;97350.80;104850;1264;61068;-24
2023/04/01 06:33:59;;;;;;;7.90;5.40;;;;;;;7.36;81.71;97353.66;104785;1269;61071;-24
2023/04/01 06:36:39;;;;;;;10.40;4.70;;;;;;;7.09;82.01;97350.98;104920;1267;74556;-24
2023/04/01 06:39:23;;;;;;;7.40;4.80;;;;;;;7.12;82.62;97346.55;104858;1270;74963;-24
2023/04/01 06:41:54;;;;;;;11.40;5.80;;;;;;;7.57;81.51;97339.64;104880;1273;73211;-24
2023/04/01 06:44:48;;;;;;;8.20;5.20;;;;;;;7.59;80.84;97341.30;104911;1269;61635;-24
2023/04/01 06:47:49;;;;;;;7.60;6.10;;;;;;;7.39;81.55;97345.77;104961;1269;61671;-24
2023/04/01 06:50:53;;;;;;;5.90;4.40;;;;;;;7.21;82.23;97365.61;104889;1268;74604;-24
2023/04/01 06:54:00;;;;;;;9.90;5.50;;;;;;;7.52;82.66;97365.82;104940;1270;75592;-24
2023/04/01 06:56:49;;;;;;;6.90;4.50;;;;;;;7.94;80.67;97366.83;104837;1269;74048;-24
2023/04/01 06:59:28;;;;;;;6.20;4.50;;;;;;;7.88;80.43;97364.63;104854;1270;61474;-24
2023/04/01 07:02:07;;;;;;;9.80;5.90;;;;;;;7.70;80.83;97369.56;104795;1267;62008;-24
2023/04/01 07:04:39;;;;;;;6.40;4.90;;;;;;;7.49;81.48;97364.90;104721;1270;73711;-24
2023/04/01 07:07:35;;;;;;;11.10;5.00;;;;;;;7.65;81.69;97362.84;104827;1270;75698;-23
2023/04/01 07:10:12;;;;;;;8.50;5.00;;;;;;;8.02;80.04;97364.77;104777;1267;73183;-23
2023/04/01 07:13:02;;;;;;;7.60;5.50;;;;;;;7.85;79.74;97367.68;104788;1267;61177;-23
2023/04/01 07:16:03;;;;;;;7.70;5.30;;;;;;;7.61;80.52;97370.44;104978;1268;61934;-23
2023/04/01 07:18:41;;;;;;;6.30;3.50;;;;;;;7.37;81.58;97376.69;104774;1267;73618;-23
2023/04/01 07:21:31;;;;;;;7.20;5.30;;;;;;;7.56;82.20;97378.39;104765;1272;75806;-23
2023/04/01 07:24:09;;;;;;;7.30;5.30;;;;;;;8.01;80.67;97379.89;104702;1272;74291;-23
2023/04/01 07:26:43;;;;;;;7.10;4.80;;;;;;;8.00;80.37;97377.64;104915;1264;61419;-25
2023/04/01 07:29:15;;;;;;;6.80;5.30;;;;;;;7.80;80.85;97377.64;104829;1269;61848;-26
2023/04/01 07:32:14;;;;;;;7.90;5.00;;;;;;;7.53;81.91;97382.28;104892;1264;74605;-25
2023/04/01 07:34:50;;;;;;;6.50;4.40;;;;;;;7.54;83.18;97377.83;104863;1273;75839;-25
2023/04/01 07:37:30;;;;;;;9.10;5.60;;;;;;;8.10;82.44;97381.52;104877;1267;73606;-25
2023/04/01 07:40:18;;;;;;;9.50;6.00;;;;;;;8.27;81.28;97378.34;104866;1272;61946;-26
2023/04/01 07:43:05;;;;;;;10.40;5.70;;;;;;;8.02;80.96;97375.20;104881;1270;62673;-25
2023/04/01 07:45:55;;;;;;;9.70;5.30;;;;;;;7.74;81.60;97372.02;104826;1277;73544;-25
2023/04/01 07:48:31;;;;;;;8.60;5.10;;;;;;;7.58;82.73;97369.05;104864;1272;75585;-25
2023/04/01 07:51:08;;;;;;;8.90;6.10;;;;;;;7.97;81.96;97372.15;104837;1271;74171;-25
2023/04/01 07:53:49;;;;;;;10.80;6.80;;;;;;;8.07;81.31;97370.52;104843;1264;62521;-25
2023/04/01 07:56:31;;;;;;;10.80;7.30;;;;;;;7.87;81.74;97374.21;104838;1270;61926;-25
2023/04/01 07:59:22;;;;;;;8.80;6.60;;;;;;;7.64;82.67;97375.14;104889;1269;73596;-25
2023/04/01 08:02:18;;;;;;;10.70;5.40;;;;;;;7.59;83.69;97377.52;105115;1269;75863;-25
2023/04/01 08:04:56;;;;;;;5.30;4.00;;;;;;;8.08;82.29;97379.56;104707;1267;74221;-25
2023/04/01 08:07:40;;;;;;;7.60;5.70;;;;;;;8.11;81.52;97383.66;104811;1267;61626;-25
2023/04/01 08:10:51;;;;;;;6.80;5.40;;;;;;;7.79;82.09;97382.92;104772;1270;61941;-25
2023/04/01 08:14:00;;;;;;;6.10;4.00;;;;;;;7.47;83.10;97379.77;104861;1269;74591;-25
2023/04/01 08:17:01;;;;;;;5.80;4.00;;;;;;;7.72;82.41;97376.86;104785;1269;75863;-25
2023/04/01 08:19:51;;;;;;;6.40;4.30;;;;;;;7.84;81.91;97382.42;104812;1270;74327;-25
2023/04/01 08:22:29;;;;;;;7.30;4.60;;;;;;;7.67;82.38;97379.23;104840;1269;61078;-24
2023/04/01 08:25:02;;;;;;;6.10;3.90;;;;;;;7.42;83.53;97380.05;104885;1264;61664;-25
2023/04/01 08:27:36;;;;;;;6.00;4.20;;;;;;;7.62;83.95;97386.71;104839;1271;73782;-26
2023/04/01 08:30:33;;;;;;;6.30;4.30;;;;;;;8.05;82.72;97384.54;104723;1272;75830;-26
2023/04/01 08:33:27;;;;;;;6.00;5.10;;;;;;;8.01;82.33;97386.11;104762;1269;74232;-26
2023/04/01 08:36:11;;;;;;;6.60;4.70;;;;;;;7.81;82.51;97378.89;104953;1269;62045;-26
2023/04/01 08:38:43;;;;;;;9.40;5.50;;;;;;;7.56;82.97;97378.03;105301;1258;61053;-25
2023/04/01 08:41:35;;;;;;;12.20;7.90;;;;;;;7.78;83.81;97376.05;105338;1263;74286;-26
2023/04/01 08:45:00;;;;;;;8.00;5.80;;;;;;;8.24;82.00;97375.89;105590;1260;76021;-26
2023/04/01 08:47:49;;;;;;;10.90;7.70;;;;;;;8.05;81.65;97366.88;105601;1263;74139;-26
2023/04/01 08:50:33;;;;;;;9.10;6.10;;;;;;;7.76;82.56;97364.36;105612;1263;61105;-26
2023/04/01 08:54:04;;;;;;;6.40;4.60;;;;;;;7.56;83.72;97361.56;105578;1260;61930;-25
2023/04/01 08:56:41;;;;;;;6.80;5.00;;;;;;;7.99;82.98;97356.61;105644;1258;74562;-26
2023/04/01 08:59:31;;;;;;;6.20;4.60;;;;;;;8.08;82.58;97356.33;105447;1263;76257;-26
2023/04/01 09:02:25;;;;;;;10.70;6.10;;;;;;;7.90;82.67;97357.49;105537;1261;73890;-25
2023/04/01 09:05:26;;;;;;;12.50;6.80;;;;;;;7.62;83.80;97357.27;105563;1262;61167;-25
2023/04/01 09:08:20;;;;;;;10.50;6.40;;;;;;;7.96;83.99;97355.55;105256;1264;61174;-24
2023/04/01 09:11:00;;;;;;;9.70;5.90;;;;;;;8.28;82.70;97351.92;105620;1258;74696;-24
2023/04/01 09:14:38;;;;;;;7.10;5.20;;;;;;;8.17;82.54;97344.30;105560;1261;76459;-24
2023/04/01 09:17:25;;;;;;;7.50;5.20;;;;;;;7.88;83.55;97338.71;105325;1257;74067;-23
2023/04/01 09:20:44;;;;;;;12.20;7.90;;;;;;;7.91;84.29;97336.11;105110;1262;62732;-24
2023/04/01 09:23:34;;;;;;;10.30;6.80;;;;;;;8.40;82.99;97343.77;105354;1260;61708;-24
2023/04/01 09:26:06;;;;;;;5.00;3.90;;;;;;;8.31;82.59;97346.27;105557;1264;74510;-24
2023/04/01 09:28:41;;;;;;;6.50;5.00;;;;;;;8.04;83.59;97344.23;105627;1260;75967;-23
2023/04/01 09:31:15;;;;;;;8.90;5.50;;;;;;;7.87;84.80;97337.52;105228;1263;73067;-24
2023/04/01 09:34:07;;;;;;;5.70;4.30;;;;;;;8.28;84.27;97336.18;105138;1263;61880;-25
2023/04/01 09:37:17;;;;;;;6.00;4.30;;;;;;;8.41;83.11;97331.41;105116;1262;61221;-25
2023/04/01 09:39:53;;;;;;;9.90;6.20;;;;;;;8.22;83.53;97335.16;105215;1261;73825;-23
2023/04/01 09:42:39;;;;;;;10.10;5.70;;;;;;;8.04;84.13;97337.46;105177;1271;75856;-23
2023/04/01 09:45:21;;;;;;;10.10;6.60;;;;;;;8.42;84.52;97336.50;105228;1258;74527;-23
2023/04/01 09:48:21;;;;;;;6.10;4.00;;;;;;;8.72;83.04;97335.80;105118;1258;61723;-25
2023/04/01 09:50:53;;;;;;;6.40;5.10;;;;;;;8.57;82.92;97328.79;105450;1257;61918;-23
2023/04/01 09:53:34;;;;;;;6.60;5.10;;;;;;;8.28;83.82;97330.79;105134;1264;73432;-23
2023/04/01 09:56:27;;;;;;;5.90;4.50;;;;;;;8.35;84.41;97336.19;105225;1262;74922;-23
2023/04/01 09:59:23;;;;;;;5.10;4.50;;;;;;;8.69;82.87;97334.42;105520;1257;74233;-23
2023/04/01 10:02:28;;;;;;;8.50;6.30;;;;;;;8.54;83.11;97335.21;105233;1264;61739;-23
2023/04/01 10:05:35;;;;;;;7.10;4.30;;;;;;;8.28;84.02;97332.32;105505;1256;61664;-23
2023/04/01 10:08:10;;;;;;;9.70;5.80;;;;;;;8.37;84.95;97332.17;105435;1260;73802;-23
2023/04/01 10:11:13;;;;;;;7.40;5.60;;;;;;;8.68;83.69;97329.84;105121;1257;75868;-23
2023/04/01 10:14:18;;;;;;;8.30;6.10;;;;;;;8.69;83.91;97332.83;105074;1263;74208;-23
2023/04/01 10:17:18;;;;;;;8.10;5.20;;;;;;;8.59;84.42;97328.83;105583;1260;61905;-23
2023/04/01 10:20:10;;;;;;;7.20;5.80;;;;;;;8.96;84.45;97324.75;105289;1257;61786;-23
2023/04/01 10:23:00;;;;;;;8.20;6.10;;;;;;;9.24;83.66;97327.24;105544;1257;75232;-23
2023/04/01 10:25:51;;;;;;;7.30;5.90;;;;;;;9.16;83.52;97327.41;105420;1262;75833;-23
2023/04/01 10:28:35;;;;;;;7.60;5.00;;;;;;;8.95;83.88;97322.80;105369;1261;74482;-23
2023/04/01 10:31:41;;;;;;;8.30;6.00;;;;;;;9.39;83.92;97326.95;105155;1257;61796;-23
2023/04/01 10:34:47;;;;;;;6.90;5.10;;;;;;;9.53;82.52;97327.55;105149;1263;61996;-22
2023/04/01 10:38:00;;;;;;;8.10;5.40;;;;;;;9.36;83.02;97317.20;105571;1261;75395;-23
2023/04/01 10:40:43;;;;;;;6.60;4.70;;;;;;;9.08;83.68;97312.11;105592;1263;75892;-23
2023/04/01 10:44:22;;;;;;;7.70;4.80;;;;;;;9.32;82.26;97302.77;104714;1270;74382;-22
2023/04/01 10:46:57;;;;;;;8.50;6.20;;;;;;;9.36;83.17;97304.91;105502;1263;61887;-22
2023/04/01 10:49:53;;;;;;;9.40;6.00;;;;;;;9.17;83.35;97303.71;105397;1257;61059;-23
2023/04/01 10:52:47;;;;;;;6.50;4.70;;;;;;;9.03;83.96;97304.17;105288;1262;74395;-22
2023/04/01 10:55:54;;;;;;;8.80;4.80;;;;;;;9.46;83.07;97302.66;105459;1263;75903;-23
2023/04/01 10:59:38;;;;;;;7.30;4.50;;;;;;;9.49;83.17;97299.90;105258;1263;73241;-23
2023/04/01 11:03:20;;;;;;;9.10;4.30;;;;;;;9.10;83.61;97295.16;104875;1267;61904;-23
2023/04/01 11:06:39;;;;;;;9.30;6.00;;;;;;;9.46;84.47;97300.36;105484;1260;61857;-23
2023/04/01 11:09:27;;;;;;;5.80;4.40;;;;;;;9.76;82.85;97299.91;105306;1257;75344;-23
2023/04/01 11:11:58;;;;;;;7.90;5.30;;;;;;;9.62;82.67;97303.42;105277;1257;75818;-24
2023/04/01 11:14:35;;;;;;;6.40;4.20;;;;;;;9.40;83.03;97299.50;105213;1258;74234;-23
2023/04/01 11:17:35;;;;;;;7.90;4.70;;;;;;;9.47;83.40;97305.29;105235;1258;61591;-25
2023/04/01 11:20:42;;;;;;;5.90;4.60;;;;;;;9.64;82.18;97307.58;105384;1258;61099;-23
2023/04/01 11:23:17;;;;;;;8.20;5.10;;;;;;;9.46;82.70;97308.86;105588;1257;75382;-23
2023/04/01 11:25:52;;;;;;;3.60;3.00;;;;;;;9.22;83.20;97309.12;105522;1262;75908;-23
2023/04/01 11:28:59;;;;;;;6.90;4.10;;;;;;;9.41;82.91;97312.00;105555;1258;74198;-23
2023/04/01 11:31:37;;;;;;;7.10;4.40;;;;;;;9.64;82.05;97310.99;105474;1263;61921;-23
2023/04/01 11:34:27;;;;;;;6.50;4.60;;;;;;;9.46;82.00;97305.90;105350;1263;61196;-22
2023/04/01 11:37:09;;;;;;;4.90;3.90;;;;;;;9.16;83.33;97306.60;105203;1257;74973;-24
2023/04/01 11:40:06;;;;;;;4.10;3.10;;;;;;;9.16;84.43;97305.95;105079;1263;75904;-23
2023/04/01 11:43:37;;;;;;;6.20;4.10;;;;;;;9.58;82.88;97299.30;105372;1257;73951;-24
2023/04/01 11:46:41;;;;;;;5.60;4.50;;;;;;;9.48;83.12;97302.08;105033;1258;61477;-22
2023/04/01 11:49:20;;;;;;;3.20;2.90;;;;;;;9.22;83.82;97298.92;105161;1257;61243;-22
2023/04/01 11:52:19;;;;;;;6.30;4.20;;;;;;;9.19;84.14;97304.60;105103;1258;75204;-22
2023/04/01 11:55:18;;;;;;;3.80;3.40;;;;;;;9.53;83.43;97309.42;105334;1260;75826;-22
2023/04/01 11:57:56;;;;;;;5.50;3.80;;;;;;;9.42;82.96;97303.47;105076;1258;74246;-23
2023/04/01 12:00:48;;;;;;;6.50;4.50;;;;;;;9.15;83.68;97308.27;105121;1262;61858;-22
2023/04/01 12:03:26;;;;;;;4.90;3.80;;;;;;;9.17;84.71;97304.14;105158;1260;61234;-22
2023/04/01 12:06:26;;;;;;;6.70;5.00;;;;;;;9.37;83.82;97308.95;105113;1263;75091;-22
2023/04/01 12:09:14;;;;;;;6.10;4.20;;;;;;;9.40;83.88;97302.98;105540;1262;75835;-22
2023/04/01 12:12:09;;;;;;;5.70;3.30;;;;;;;9.14;84.39;97305.08;105483;1262;74267;-22
2023/04/01 12:15:00;;;;;;;5.40;3.70;;;;;;;9.18;85.60;97308.65;105142;1257;62592;-22
2023/04/01 12:17:59;;;;;;;5.80;4.00;;;;;;;9.62;84.08;97309.53;105211;1260;61642;-23
2023/04/01 12:20:50;;;;;;;4.80;3.60;;;;;;;9.54;83.81;97307.51;105021;1258;75402;-23
2023/04/01 12:23:28;;;;;;;7.10;4.40;;;;;;;9.28;84.50;97306.08;105163;1264;75768;-22
2023/04/01 12:26:10;;;;;;;5.70;3.40;;;;;;;9.22;85.36;97305.80;105214;1257;74073;-23
2023/04/01 12:28:58;;;;;;;7.10;4.40;;;;;;;9.63;84.34;97304.40;105101;1257;61989;-23
2023/04/01 12:31:38;;;;;;;7.10;4.60;;;;;;;9.67;83.88;97303.63;105212;1260;61905;-23
2023/04/01 12:34:44;;;;;;;6.00;4.20;;;;;;;9.45;84.04;97300.48;105120;1263;75092;-23
2023/04/01 12:37:18;;;;;;;5.80;4.10;;;;;;;9.28;85.34;97299.36;105566;1257;75901;-23
2023/04/01 12:40:15;;;;;;;5.80;4.60;;;;;;;9.68;84.35;97300.04;105398;1263;74119;-23
2023/04/01 12:42:46;;;;;;;5.60;4.50;;;;;;;9.76;83.32;97298.15;105160;1257;61720;-23
2023/04/01 12:45:40;;;;;;;9.30;5.30;;;;;;;9.58;83.73;97298.95;105111;1264;61966;-23
2023/04/01 12:48:21;;;;;;;6.20;4.70;;;;;;;9.38;84.40;97296.25;105086;1258;75357;-23
2023/04/01 12:51:15;;;;;;;9.40;5.70;;;;;;;9.67;84.40;97301.01;105151;1258;75765;-23
2023/04/01 12:54:12;;;;;;;7.40;5.30;;;;;;;9.94;83.09;97298.89;105126;1257;73322;-23
2023/04/01 12:57:19;;;;;;;7.50;5.00;;;;;;;9.81;82.65;97298.02;105195;1258;61150;-23
2023/04/01 13:00:26;;;;;;;6.50;3.30;;;;;;;9.55;83.98;97298.05;105255;1256;61160;-25
2023/04/01 13:03:37;;;;;;;7.70;4.70;;;;;;;9.94;84.10;97296.27;105561;1257;75383;-23
2023/04/01 13:06:25;;;;;;;6.00;4.60;;;;;;;10.37;82.72;97294.67;105261;1257;74946;-23
2023/04/01 13:09:26;;;;;;;5.90;4.30;;;;;;;10.37;82.73;97291.32;105298;1257;74245;-23
2023/04/01 13:12:16;;;;;;;7.90;4.20;;;;;;;10.23;83.00;97290.36;105088;1258;61763;-23
2023/04/01 13:14:57;;;;;;;9.40;4.30;;;;;;;10.27;83.47;97291.40;105181;1257;62071;-23
2023/04/01 13:17:44;;;;;;;7.80;4.80;;;;;;;10.79;81.49;97289.07;105146;1257;75376;-23
2023/04/01 13:20:21;;;;;;;5.40;3.70;;;;;;;10.94;81.12;97286.04;105221;1256;75995;-23
2023/04/01 13:23:19;;;;;;;7.20;4.60;;;;;;;10.84;80.76;97286.62;105105;1263;74249;-23
2023/04/01 13:26:03;;;;;;;6.40;3.60;;;;;;;10.62;81.72;97291.81;105193;1257;61864;-23